createdAt,value
2019-01-18T00:03:40.040Z,5.63
2019-01-18T00:06:29.261Z,5.63
2019-01-18T00:09:11.515Z,5.63
2019-01-18T00:11:53.324Z,5.63
2019-01-18T00:14:35.029Z,6.20
2019-01-18T00:17:05.063Z,5.47
2019-01-18T00:19:54.217Z,5.60
2019-01-18T00:22:36.030Z,4.77
2019-01-18T00:25:17.899Z,5.20
2019-01-18T00:28:00.030Z,4.20
2019-01-18T00:30:42.155Z,4.53
2019-01-18T00:33:12.271Z,4.10
2019-01-18T00:36:01.502Z,4.70
2019-01-18T00:38:45.073Z,4.20
2019-01-18T00:41:26.798Z,4.30
2019-01-18T00:44:08.297Z,3.73
2019-01-18T00:46:49.679Z,4.13
2019-01-18T00:49:31.826Z,4.33
2019-01-18T00:52:13.352Z,4.40
2019-01-18T00:54:54.846Z,3.90
2019-01-18T00:57:36.959Z,4.50
2019-01-18T01:00:18.534Z,4.53
2019-01-18T01:03:00.945Z,4.67
2019-01-18T01:05:42.609Z,4.77
2019-01-18T01:08:12.760Z,4.03
2019-01-18T01:11:01.925Z,4.37
2019-01-18T01:13:33.600Z,4.93
2019-01-18T01:16:15.621Z,4.57
2019-01-18T01:18:57.086Z,5.80
2019-01-18T01:21:39.220Z,4.37
2019-01-18T01:24:21.058Z,4.70
2019-01-18T01:27:03.250Z,5.10
2019-01-18T01:29:33.501Z,4.50
2019-01-18T01:32:22.682Z,4.63
2019-01-18T01:35:04.320Z,4.80
2019-01-18T01:37:46.276Z,4.60
2019-01-18T01:40:27.950Z,4.47
2019-01-18T01:43:09.672Z,5.03
2019-01-18T01:45:51.265Z,4.93
2019-01-18T01:48:32.997Z,5.00
2019-01-18T01:51:03.178Z,5.20
2019-01-18T01:53:52.593Z,5.30
2019-01-18T01:56:34.697Z,4.33
2019-01-18T01:59:16.687Z,5.00
2019-01-18T02:01:58.642Z,5.20
2019-01-18T02:04:40.554Z,5.30
2019-01-18T02:07:22.698Z,4.80
2019-01-18T02:10:04.796Z,4.30
2019-01-18T02:12:47.453Z,4.57
2019-01-18T02:15:29.371Z,4.87
2019-01-18T02:18:10.804Z,4.80
2019-01-18T02:20:51.312Z,4.33
2019-01-18T02:23:40.638Z,4.60
2019-01-18T02:26:22.068Z,4.63
2019-01-18T02:29:04.385Z,4.40
2019-01-18T02:31:46.117Z,4.63
2019-01-18T02:34:29.277Z,5.10
2019-01-18T02:37:11.374Z,3.97
2019-01-18T02:39:53.414Z,4.90
2019-01-18T02:42:35.342Z,4.90
2019-01-18T02:45:17.323Z,4.37
2019-01-18T02:47:59.453Z,3.97
2019-01-18T02:50:29.503Z,4.37
2019-01-18T02:53:11.711Z,4.50
2019-01-18T02:55:54.023Z,4.23
2019-01-18T02:58:35.795Z,4.50
2019-01-18T03:01:17.522Z,4.60
2019-01-18T03:03:59.176Z,6.27
2019-01-18T03:06:41.288Z,6.00
2019-01-18T03:09:22.624Z,8.50
2019-01-18T03:12:04.103Z,7.00
2019-01-18T03:14:45.821Z,8.50
2019-01-18T03:17:27.855Z,5.87
2019-01-18T03:20:09.954Z,4.57
2019-01-18T03:22:52.200Z,4.43
2019-01-18T03:25:28.170Z,3.83
2019-01-18T03:28:17.397Z,4.30
2019-01-18T03:30:57.741Z,3.60
2019-01-18T03:33:46.877Z,3.80
2019-01-18T03:36:28.788Z,4.33
2019-01-18T03:39:10.772Z,3.77
2019-01-18T03:41:52.812Z,3.50
2019-01-18T03:44:34.566Z,3.77
2019-01-18T03:47:16.495Z,3.87
2019-01-18T03:49:46.568Z,3.60
2019-01-18T03:52:16.623Z,3.57
2019-01-18T03:54:46.858Z,3.80
2019-01-18T03:57:17.151Z,3.87
2019-01-18T03:59:59.565Z,4.10
2019-01-18T04:02:41.083Z,4.00
2019-01-18T04:05:23.051Z,3.40
2019-01-18T04:08:05.379Z,3.93
2019-01-18T04:10:47.503Z,3.80
2019-01-18T04:13:29.292Z,3.63
2019-01-18T04:16:12.392Z,3.70
2019-01-18T04:18:54.179Z,3.33
2019-01-18T04:21:36.245Z,2.93
2019-01-18T04:24:18.257Z,3.43
2019-01-18T04:27:00.197Z,3.57
2019-01-18T04:29:41.662Z,3.70
2019-01-18T04:32:12.039Z,3.90
2019-01-18T04:34:42.350Z,3.43
2019-01-18T04:37:23.959Z,4.13
2019-01-18T04:40:05.835Z,3.60
2019-01-18T04:42:47.701Z,3.80
2019-01-18T04:45:29.807Z,3.20
2019-01-18T04:48:11.883Z,3.70
2019-01-18T04:50:53.866Z,3.63
2019-01-18T04:53:24.164Z,3.53
2019-01-18T04:56:13.531Z,3.77
2019-01-18T04:58:55.599Z,3.67
2019-01-18T05:01:37.016Z,4.33
2019-01-18T05:04:07.236Z,3.83
2019-01-18T05:06:57.103Z,4.10
2019-01-18T05:09:39.039Z,4.00
2019-01-18T05:12:21.156Z,3.83
2019-01-18T05:15:03.913Z,4.07
2019-01-18T05:17:45.791Z,4.37
2019-01-18T05:20:28.124Z,4.00
2019-01-18T05:23:09.856Z,5.27
2019-01-18T05:25:51.858Z,4.60
2019-01-18T05:28:33.594Z,4.20
2019-01-18T05:31:15.594Z,4.63
2019-01-18T05:33:57.177Z,4.33
2019-01-18T05:36:38.826Z,4.50
2019-01-18T05:39:20.824Z,4.63
2019-01-18T05:42:02.851Z,4.57
2019-01-18T05:44:44.733Z,5.30
2019-01-18T05:47:27.024Z,5.17
2019-01-18T05:50:09.151Z,5.33
2019-01-18T05:52:51.090Z,5.20
2019-01-18T05:55:33.226Z,5.67
2019-01-18T05:58:15.273Z,5.23
2019-01-18T06:01:05.114Z,5.30
2019-01-18T06:03:47.302Z,5.30
2019-01-18T06:06:29.434Z,5.30
2019-01-18T06:09:11.126Z,5.33
2019-01-18T06:11:52.769Z,6.43
2019-01-18T06:14:34.987Z,7.53
2019-01-18T06:17:05.895Z,7.07
2019-01-18T06:19:36.236Z,6.80
2019-01-18T06:22:06.636Z,6.33
2019-01-18T06:24:37.115Z,5.77
2019-01-18T06:27:19.002Z,12.27
2019-01-18T06:30:00.527Z,21.77
2019-01-18T06:32:42.619Z,15.67
2019-01-18T06:35:24.878Z,12.17
2019-01-18T06:38:07.122Z,8.57
2019-01-18T06:40:49.732Z,6.87
2019-01-18T06:43:31.786Z,6.00
2019-01-18T06:46:13.463Z,6.30
2019-01-18T06:48:56.061Z,6.43
2019-01-18T06:51:38.233Z,6.23
2019-01-18T06:54:19.995Z,6.27
2019-01-18T06:57:02.084Z,6.07
2019-01-18T06:59:43.906Z,6.27
2019-01-18T07:02:25.702Z,6.57
2019-01-18T07:05:07.830Z,6.97
2019-01-18T07:07:50.073Z,6.67
2019-01-18T07:10:31.662Z,6.73
2019-01-18T07:13:13.748Z,6.80
2019-01-18T07:15:55.650Z,8.37
2019-01-18T07:18:37.535Z,7.80
2019-01-18T07:21:19.339Z,7.43
2019-01-18T07:24:01.110Z,6.63
2019-01-18T07:26:43.706Z,6.87
2019-01-18T07:29:26.018Z,7.63
2019-01-18T07:32:08.215Z,7.50
2019-01-18T07:34:49.953Z,6.77
2019-01-18T07:37:31.741Z,6.83
2019-01-18T07:40:13.327Z,9.23
2019-01-18T07:42:55.059Z,8.30
2019-01-18T07:45:37.142Z,7.07
2019-01-18T07:48:18.781Z,8.67
2019-01-18T07:51:00.894Z,7.63
2019-01-18T07:53:42.852Z,8.10
2019-01-18T07:56:24.819Z,8.20
2019-01-18T07:59:06.815Z,8.00
2019-01-18T08:01:48.293Z,7.33
2019-01-18T08:04:29.787Z,9.00
2019-01-18T08:06:59.854Z,9.10
2019-01-18T08:09:49.067Z,9.90
2019-01-18T08:12:31.233Z,10.03
2019-01-18T08:15:12.985Z,9.20
2019-01-18T08:17:54.447Z,9.47
2019-01-18T08:20:36.449Z,9.53
2019-01-18T08:23:18.560Z,8.67
2019-01-18T08:25:48.616Z,8.47
2019-01-18T08:28:37.712Z,8.47
2019-01-18T08:31:07.858Z,8.87
2019-01-18T08:33:38.060Z,9.90
2019-01-18T08:36:08.363Z,8.63
2019-01-18T08:38:38.645Z,10.23
2019-01-18T08:41:20.908Z,9.20
2019-01-18T08:43:51.207Z,9.77
2019-01-18T08:46:40.401Z,10.17
2019-01-18T08:49:22.067Z,9.33
2019-01-18T08:52:04.372Z,9.63
2019-01-18T08:54:46.155Z,9.70
2019-01-18T08:57:27.731Z,11.30
2019-01-18T09:00:09.286Z,11.70
2019-01-18T09:02:52.857Z,12.47
2019-01-18T09:05:34.929Z,12.67
2019-01-18T09:08:16.891Z,13.87
2019-01-18T09:10:58.876Z,15.87
2019-01-18T09:13:40.531Z,19.13
2019-01-18T09:16:22.832Z,14.37
2019-01-18T09:19:05.027Z,15.20
2019-01-18T09:21:47.057Z,14.57
2019-01-18T09:24:28.931Z,11.97
2019-01-18T09:27:11.325Z,11.17
2019-01-18T09:29:53.267Z,10.73
2019-01-18T09:32:35.161Z,10.23
2019-01-18T09:35:17.385Z,10.00
2019-01-18T09:37:59.682Z,10.20
2019-01-18T09:40:41.878Z,9.00
2019-01-18T09:43:23.867Z,10.17
2019-01-18T09:45:53.956Z,10.57
2019-01-18T09:48:43.410Z,9.73
2019-01-18T09:51:25.866Z,9.37
2019-01-18T09:53:55.884Z,10.43
2019-01-18T09:56:44.986Z,9.73
2019-01-18T09:59:27.087Z,10.40
2019-01-18T10:02:09.085Z,9.60
2019-01-18T10:04:51.359Z,9.50
2019-01-18T10:07:33.591Z,9.57
2019-01-18T10:10:15.351Z,11.17
2019-01-18T10:12:57.218Z,10.20
2019-01-18T10:15:39.133Z,10.67
2019-01-18T10:18:20.782Z,11.93
2019-01-18T10:21:03.154Z,10.43
2019-01-18T10:23:45.225Z,9.13
2019-01-18T10:26:27.060Z,8.50
2019-01-18T10:29:09.273Z,7.63
2019-01-18T10:31:56.061Z,7.33
2019-01-18T10:34:34.554Z,7.00
2019-01-18T10:37:16.670Z,6.93
2019-01-18T10:39:58.318Z,7.20
2019-01-18T10:42:40.327Z,6.10
2019-01-18T10:45:22.327Z,6.43
2019-01-18T10:48:04.367Z,6.27
2019-01-18T10:50:34.762Z,5.77
2019-01-18T10:53:23.897Z,5.87
2019-01-18T10:56:05.239Z,5.53
2019-01-18T10:58:47.077Z,6.00
2019-01-18T11:01:29.302Z,10.60
2019-01-18T11:04:11.030Z,9.43
2019-01-18T11:06:52.971Z,6.00
2019-01-18T11:09:34.611Z,5.87
2019-01-18T11:12:16.337Z,6.40
2019-01-18T11:14:58.072Z,5.50
2019-01-18T11:17:40.303Z,6.10
2019-01-18T11:20:22.314Z,6.27
2019-01-18T11:23:04.467Z,6.00
2019-01-18T11:25:46.589Z,5.80
2019-01-18T11:28:28.155Z,5.60
2019-01-18T11:31:10.112Z,6.43
2019-01-18T11:33:51.812Z,6.07
2019-01-18T11:36:33.650Z,5.50
2019-01-18T11:39:13.884Z,8.83
2019-01-18T11:42:05.288Z,5.93
2019-01-18T11:45:06.077Z,6.27
2019-01-18T11:47:48.192Z,7.47
2019-01-18T11:50:30.207Z,6.63
2019-01-18T11:53:12.158Z,7.47
2019-01-18T11:55:54.422Z,10.60
2019-01-18T11:58:36.237Z,7.70
2019-01-18T12:01:18.806Z,9.00
2019-01-18T12:04:00.314Z,11.57
2019-01-18T12:06:41.752Z,12.20
2019-01-18T12:09:23.682Z,8.17
2019-01-18T12:12:05.625Z,5.83
2019-01-18T12:14:47.525Z,22.83
2019-01-18T12:17:29.358Z,8.73
2019-01-18T12:20:11.574Z,10.50
2019-01-18T12:22:53.732Z,10.13
2019-01-18T12:25:35.404Z,12.07
2019-01-18T12:28:15.662Z,7.10
2019-01-18T12:31:04.869Z,7.93
2019-01-18T12:33:46.965Z,8.87
2019-01-18T12:36:29.307Z,9.23
2019-01-18T12:39:11.248Z,16.23
2019-01-18T12:41:53.410Z,9.63
2019-01-18T12:44:23.479Z,6.53
2019-01-18T12:47:12.792Z,6.83
2019-01-18T12:49:54.592Z,7.13
2019-01-18T12:52:36.599Z,6.47
2019-01-18T12:55:18.409Z,6.23
2019-01-18T12:57:59.786Z,5.77
2019-01-18T13:00:30.424Z,6.20
2019-01-18T13:03:20.110Z,6.20
2019-01-18T13:06:02.075Z,6.23
2019-01-18T13:08:32.138Z,6.60
2019-01-18T13:11:03.822Z,7.93
2019-01-18T13:13:33.877Z,7.73
2019-01-18T13:16:30.473Z,7.87
2019-01-18T13:19:03.662Z,7.40
2019-01-18T13:21:33.726Z,7.53
2019-01-18T13:24:04.113Z,7.60
2019-01-18T13:26:34.336Z,7.17
2019-01-18T13:29:04.639Z,8.53
2019-01-18T13:31:34.872Z,8.73
2019-01-18T13:34:05.207Z,8.43
2019-01-18T13:36:35.802Z,8.70
2019-01-18T13:39:08.636Z,8.60
2019-01-18T13:41:38.975Z,8.20
2019-01-18T13:44:09.563Z,8.83
2019-01-18T13:46:39.886Z,8.73
2019-01-18T13:49:10.056Z,8.70
2019-01-18T13:51:40.270Z,10.10
2019-01-18T13:54:10.465Z,10.53
2019-01-18T13:56:40.722Z,9.73
2019-01-18T13:59:11.064Z,9.93
2019-01-18T14:01:41.270Z,11.17
2019-01-18T14:04:11.483Z,11.77
2019-01-18T14:06:41.836Z,11.07
2019-01-18T14:09:12.048Z,11.30
2019-01-18T14:11:42.282Z,11.83
2019-01-18T14:14:12.407Z,12.30
2019-01-18T14:16:42.672Z,11.63
2019-01-18T14:19:12.994Z,12.53
2019-01-18T14:21:43.203Z,12.73
2019-01-18T14:24:13.463Z,13.53
2019-01-18T14:26:43.731Z,14.57
2019-01-18T14:29:13.953Z,14.67
2019-01-18T14:31:44.190Z,13.30
2019-01-18T14:34:14.435Z,14.83
2019-01-18T14:36:44.694Z,14.10
2019-01-18T14:39:14.925Z,16.03
2019-01-18T14:41:45.239Z,14.80
2019-01-18T14:44:15.502Z,13.60
2019-01-18T14:46:45.841Z,14.50
2019-01-18T14:49:16.037Z,14.07
2019-01-18T14:51:46.291Z,14.90
2019-01-18T14:54:16.634Z,14.87
2019-01-18T14:56:46.883Z,13.73
2019-01-18T14:59:17.545Z,81.60
2019-01-18T15:01:47.852Z,26.70
2019-01-18T15:04:18.085Z,23.50
2019-01-18T15:06:48.291Z,16.80
2019-01-18T15:09:18.470Z,16.13
2019-01-18T15:11:48.637Z,17.13
2019-01-18T15:14:18.906Z,16.30
2019-01-18T15:16:49.123Z,15.17
2019-01-18T15:19:19.423Z,16.50
2019-01-18T15:21:49.626Z,14.90
2019-01-18T15:24:19.910Z,14.97
2019-01-18T15:26:50.132Z,19.37
2019-01-18T15:29:21.691Z,15.37
2019-01-18T15:31:51.971Z,14.80
2019-01-18T15:34:22.212Z,14.20
2019-01-18T15:36:52.528Z,15.73
2019-01-18T15:39:22.847Z,15.47
2019-01-18T15:41:53.115Z,14.97
2019-01-18T15:44:23.319Z,15.37
2019-01-18T15:46:53.920Z,14.83
2019-01-18T15:49:26.169Z,15.77
2019-01-18T15:51:56.729Z,15.00
2019-01-18T15:54:26.996Z,14.77
2019-01-18T15:56:57.207Z,15.87
2019-01-18T15:59:27.650Z,14.80
2019-01-18T16:01:57.951Z,14.47
2019-01-18T16:04:28.227Z,14.80
2019-01-18T16:06:58.759Z,15.40
2019-01-18T16:09:29.285Z,15.77
2019-01-18T16:11:59.535Z,17.83
2019-01-18T16:14:29.796Z,15.17
2019-01-18T16:17:13.891Z,16.73
2019-01-18T16:19:44.421Z,16.77
2019-01-18T16:22:14.763Z,15.17
2019-01-18T16:24:45.394Z,14.83
2019-01-18T16:27:15.563Z,15.60
2019-01-18T16:29:45.805Z,17.30
2019-01-18T16:32:16.013Z,17.27
2019-01-18T16:34:46.252Z,21.17
2019-01-18T16:37:16.622Z,28.80
2019-01-18T16:39:46.918Z,22.23
2019-01-18T16:42:18.607Z,17.07
2019-01-18T16:44:48.814Z,17.53
2019-01-18T16:47:19.057Z,16.10
2019-01-18T16:49:49.339Z,15.73
2019-01-18T16:52:19.591Z,16.20
2019-01-18T16:54:49.812Z,16.43
2019-01-18T16:57:19.997Z,15.53
2019-01-18T16:59:50.218Z,16.27
2019-01-18T17:02:20.889Z,15.13
2019-01-18T17:04:51.183Z,15.87
2019-01-18T17:07:21.472Z,14.57
2019-01-18T17:09:51.787Z,14.90
2019-01-18T17:12:21.961Z,14.13
2019-01-18T17:14:52.140Z,15.37
2019-01-18T17:17:22.438Z,15.43
2019-01-18T17:19:52.680Z,14.03
2019-01-18T17:22:23.008Z,15.10
2019-01-18T17:24:53.552Z,15.27
2019-01-18T17:27:23.864Z,15.20
2019-01-18T17:29:54.178Z,15.73
2019-01-18T17:32:24.439Z,14.40
2019-01-18T17:34:54.909Z,15.17
2019-01-18T17:37:29.877Z,17.43
2019-01-18T17:40:13.737Z,15.03
2019-01-18T17:43:08.262Z,14.67
2019-01-18T17:46:03.846Z,14.27
2019-01-18T17:49:18.248Z,14.40
2019-01-18T17:52:29.598Z,14.17
2019-01-18T17:55:24.902Z,13.47
2019-01-18T17:58:15.401Z,15.23
2019-01-18T18:01:37.308Z,13.47
2019-01-18T18:04:43.553Z,13.23
2019-01-18T18:07:32.357Z,13.03
2019-01-18T18:10:55.652Z,13.87
2019-01-18T18:13:45.152Z,17.33
2019-01-18T18:16:59.958Z,15.33
2019-01-18T18:19:57.897Z,13.47
2019-01-18T18:23:16.888Z,13.20
2019-01-18T18:26:26.302Z,12.43
2019-01-18T18:29:28.870Z,12.93
2019-01-18T18:32:52.208Z,14.13
2019-01-18T18:35:45.502Z,14.87
2019-01-18T18:38:52.562Z,14.20
2019-01-18T18:42:16.743Z,16.77
2019-01-18T18:45:22.926Z,14.17
2019-01-18T18:48:30.890Z,12.43
2019-01-18T18:51:38.009Z,14.03
2019-01-18T18:54:40.551Z,12.37
2019-01-18T18:57:18.659Z,13.27
2019-01-18T19:00:02.410Z,13.20
2019-01-18T19:02:40.055Z,12.33
2019-01-18T19:05:28.890Z,10.73
2019-01-18T19:08:40.107Z,12.30
2019-01-18T19:11:27.436Z,13.83
2019-01-18T19:14:20.782Z,16.00
2019-01-18T19:17:47.105Z,16.43
2019-01-18T19:21:13.186Z,14.40
2019-01-18T19:23:59.077Z,10.30
2019-01-18T19:26:43.011Z,18.47
2019-01-18T19:29:53.414Z,13.70
2019-01-18T19:32:54.019Z,12.17
2019-01-18T19:36:09.678Z,11.27
2019-01-18T19:39:14.201Z,11.17
2019-01-18T19:42:07.737Z,11.40
2019-01-18T19:45:17.958Z,11.97
2019-01-18T19:48:24.273Z,11.73
2019-01-18T19:51:34.254Z,11.03
2019-01-18T19:54:51.239Z,10.47
2019-01-18T19:57:58.521Z,10.60
2019-01-18T20:00:58.054Z,10.90
2019-01-18T20:03:37.459Z,10.87
2019-01-18T20:06:48.997Z,11.10
2019-01-18T20:09:39.644Z,10.93
2019-01-18T20:12:41.070Z,11.17
2019-01-18T20:15:55.609Z,10.73
2019-01-18T20:18:46.299Z,10.70
2019-01-18T20:21:55.809Z,11.10
2019-01-18T20:25:00.710Z,11.20
2019-01-18T20:28:17.693Z,12.80
2019-01-18T20:31:19.289Z,10.83
2019-01-18T20:34:48.578Z,10.13
2019-01-18T20:37:47.631Z,11.10
2019-01-18T20:40:36.898Z,10.73
2019-01-18T20:43:42.151Z,10.67
2019-01-18T20:46:46.971Z,11.27
2019-01-18T20:50:04.115Z,11.00
2019-01-18T20:52:46.755Z,10.70
2019-01-18T20:55:49.446Z,11.37
2019-01-18T20:59:05.398Z,11.13
2019-01-18T21:02:08.693Z,10.63
2019-01-18T21:05:29.430Z,10.00
2019-01-18T21:08:43.631Z,10.87
2019-01-18T21:12:09.844Z,11.23
2019-01-18T21:15:01.517Z,11.57
2019-01-18T21:18:14.706Z,10.90
2019-01-18T21:21:02.235Z,11.47
2019-01-18T21:24:11.652Z,10.43
2019-01-18T21:27:10.356Z,10.07
2019-01-18T21:30:17.943Z,10.07
2019-01-18T21:33:24.782Z,9.80
2019-01-18T21:36:22.607Z,10.63
2019-01-18T21:39:19.283Z,10.33
2019-01-18T21:42:32.380Z,11.97
2019-01-18T21:45:45.156Z,10.07
2019-01-18T21:48:53.253Z,11.43
2019-01-18T21:52:04.533Z,10.17
2019-01-18T21:54:52.120Z,11.03
2019-01-18T21:57:51.307Z,10.20
2019-01-18T22:01:17.717Z,11.17
2019-01-18T22:04:17.695Z,12.40
2019-01-18T22:07:15.902Z,10.33
2019-01-18T22:10:03.524Z,10.60
2019-01-18T22:13:13.035Z,10.50
2019-01-18T22:16:10.276Z,10.67
2019-01-18T22:18:57.843Z,10.70
2019-01-18T22:22:13.034Z,11.33
2019-01-18T22:25:45.006Z,10.73
2019-01-18T22:28:46.457Z,9.73
2019-01-18T22:31:45.711Z,11.23
2019-01-18T22:34:26.341Z,10.67
2019-01-18T22:37:37.830Z,10.63
2019-01-18T22:40:57.752Z,11.20
2019-01-18T22:44:03.451Z,12.37
2019-01-18T22:47:30.726Z,11.23
2019-01-18T22:50:12.263Z,12.53
2019-01-18T22:53:00.445Z,11.17
2019-01-18T22:56:00.332Z,11.97
2019-01-18T22:59:15.030Z,12.47
2019-01-18T23:02:29.272Z,11.40
2019-01-18T23:05:36.199Z,12.33
2019-01-18T23:08:53.609Z,11.77
2019-01-18T23:12:01.251Z,12.53
2019-01-18T23:15:02.909Z,10.53
2019-01-18T23:17:48.250Z,11.67
2019-01-18T23:21:08.506Z,11.20
2019-01-18T23:23:56.643Z,10.93
2019-01-18T23:27:18.562Z,10.53
2019-01-18T23:30:19.445Z,11.53
2019-01-18T23:33:16.557Z,10.77
2019-01-18T23:36:32.985Z,11.27
2019-01-18T23:39:41.489Z,10.57
2019-01-18T23:42:54.120Z,9.97
2019-01-18T23:46:06.491Z,10.03
2019-01-18T23:48:59.917Z,10.10
2019-01-18T23:52:06.871Z,10.40
2019-01-18T23:54:53.742Z,9.77
2019-01-18T23:57:50.792Z,10.00
